Time;durP1;ratioP1;P1;durP2;ratioP2;P2;SDS_P1;SDS_P2;PMS_P1;PMS_P2;Temp;Humidity;BMP_temperature;BMP_pressure;BME280_temperature;BME280_humidity;BME280_pressure;Samples;Min_cycle;Max_cycle;Signal;HPM_P1;HPM_P2
2021/12/13 00:02:08;;;;;;;1.63;1.25;;;15.10;65.20;;;;;;5033969;28;20148;-75
2021/12/13 00:04:37;;;;;;;3.33;1.45;;;15.10;65.20;;;;;;5033794;28;20085;-75
2021/12/13 00:07:07;;;;;;;1.33;0.98;;;15.10;64.90;;;;;;5033479;28;20558;-75
2021/12/13 00:09:35;;;;;;;1.85;1.40;;;15.10;65.30;;;;;;5033593;28;20085;-75
2021/12/13 00:12:03;;;;;;;2.45;1.30;;;15.00;58.60;;;;;;5033615;28;20053;-75
2021/12/13 00:14:33;;;;;;;2.05;1.45;;;15.10;65.10;;;;;;5033147;28;20132;-75
2021/12/13 00:17:01;;;;;;;2.08;1.30;;;15.00;58.60;;;;;;5033265;28;20060;-75
2021/12/13 00:19:32;;;;;;;2.05;1.70;;;15.20;61.40;;;;;;5033013;28;20136;-75
2021/12/13 00:22:02;;;;;;;2.50;1.40;;;14.60;65.10;;;;;;5033772;28;20144;-75
2021/12/13 00:24:31;;;;;;;1.58;1.20;;;15.00;65.30;;;;;;5033358;28;20060;-75
2021/12/13 00:27:02;;;;;;;2.08;1.35;;;15.70;65.70;;;;;;5033206;28;20061;-75
2021/12/13 00:29:38;;;;;;;1.75;1.45;;;14.70;59.40;;;;;;5033406;28;20049;-75
2021/12/13 00:32:07;;;;;;;2.45;1.50;;;14.90;60.10;;;;;;5032927;28;20139;-75
2021/12/13 00:34:35;;;;;;;2.40;1.50;;;14.90;58.60;;;;;;5033351;28;20140;-75
2021/12/13 00:37:08;;;;;;;2.80;1.48;;;14.50;64.80;;;;;;5032826;28;20103;-75
2021/12/13 00:39:40;;;;;;;1.92;1.40;;;14.90;65.20;;;;;;5032902;28;20125;-75
2021/12/13 00:42:07;;;;;;;2.63;1.50;;;14.80;61.90;;;;;;5033208;28;20423;-75
2021/12/13 00:44:41;;;;;;;1.83;1.33;;;15.00;65.20;;;;;;5032906;28;20490;-75
2021/12/13 00:47:11;;;;;;;1.90;1.50;;;14.90;65.40;;;;;;5032610;28;20128;-75
2021/12/13 00:49:40;;;;;;;1.92;1.40;;;14.70;60.60;;;;;;5066333;28;20077;-75
2021/12/13 00:52:07;;;;;;;2.25;1.50;;;15.00;62.80;;;;;;5032903;28;20144;-75
2021/12/13 00:54:36;;;;;;;2.00;1.52;;;14.40;64.80;;;;;;5032970;28;20156;-75
2021/12/13 00:57:30;;;;;;;2.30;1.70;;;14.70;65.00;;;;;;5032497;28;20136;-75
2021/12/13 01:00:03;;;;;;;2.20;1.55;;;15.00;58.90;;;;;;5026925;28;20144;-75
2021/12/13 01:02:32;;;;;;;1.80;1.40;;;15.70;65.50;;;;;;5032967;28;20057;-75
2021/12/13 01:05:01;;;;;;;1.60;1.50;;;14.90;65.40;;;;;;5032311;28;20132;-75
2021/12/13 01:08:01;;;;;;;3.25;1.50;;;15.70;65.60;;;;;;5031910;28;20092;-75
2021/12/13 01:11:08;;;;;;;2.38;1.50;;;14.90;65.50;;;;;;5032555;28;20133;-75
2021/12/13 01:13:54;;;;;;;1.90;1.50;;;14.60;65.40;;;;;;5032200;28;20214;-75
2021/12/13 01:16:36;;;;;;;2.00;1.60;;;14.80;58.70;;;;;;5032133;28;20085;-75
2021/12/13 01:19:26;;;;;;;2.58;1.55;;;14.80;58.60;;;;;;5032323;28;20053;-75
2021/12/13 01:21:59;;;;;;;2.17;1.40;;;15.00;58.80;;;;;;5065460;28;20490;-75
2021/12/13 01:24:52;;;;;;;2.20;1.52;;;14.90;65.30;;;;;;5032360;28;20062;-75
2021/12/13 01:27:28;;;;;;;2.50;1.60;;;14.70;65.40;;;;;;5031610;28;20049;-75
2021/12/13 01:29:55;;;;;;;2.85;1.50;;;14.80;65.50;;;;;;5032069;28;20136;-75
2021/12/13 01:32:23;;;;;;;2.30;1.67;;;14.80;58.70;;;;;;5032291;28;20079;-75
2021/12/13 01:34:51;;;;;;;1.75;1.50;;;14.80;65.10;;;;;;5032160;28;20055;-75
2021/12/13 01:37:18;;;;;;;1.80;1.40;;;;;;;;;;5031740;28;20093;-75
2021/12/13 01:39:46;;;;;;;1.92;1.60;;;14.90;65.30;;;;;;5031729;28;20081;-75
2021/12/13 01:42:14;;;;;;;1.95;1.58;;;14.80;58.60;;;;;;5031795;28;20053;-75
2021/12/13 01:44:42;;;;;;;2.13;1.60;;;14.40;65.20;;;;;;5031714;28;20060;-75
2021/12/13 01:47:11;;;;;;;2.97;1.63;;;14.90;65.20;;;;;;5031683;28;20136;-75
2021/12/13 01:49:41;;;;;;;2.13;1.65;;;14.80;64.60;;;;;;5031996;28;20056;-75
2021/12/13 01:52:14;;;;;;;2.45;1.65;;;14.80;58.60;;;;;;5031322;28;20088;-75
2021/12/13 01:54:41;;;;;;;3.83;1.63;;;14.40;65.20;;;;;;5031631;28;20059;-75
2021/12/13 01:57:22;;;;;;;3.28;1.98;;;14.50;65.30;;;;;;5031149;28;20137;-75
2021/12/13 01:59:53;;;;;;;2.63;1.60;;;14.80;58.60;;;;;;5031485;28;20072;-75
2021/12/13 02:02:24;;;;;;;2.13;1.52;;;14.90;65.20;;;;;;5031100;28;20063;-75
2021/12/13 02:05:01;;;;;;;3.47;1.77;;;14.70;65.10;;;;;;5031525;28;20140;-75
2021/12/13 02:07:30;;;;;;;2.45;1.58;;;14.80;65.30;;;;;;5031462;28;20136;-75
2021/12/13 02:09:57;;;;;;;2.95;1.98;;;14.80;59.10;;;;;;5031173;28;20084;-75
2021/12/13 02:12:24;;;;;;;2.40;1.60;;;14.80;65.30;;;;;;5030297;28;20128;-75
2021/12/13 02:16:56;;;;;;;2.63;1.67;;;14.80;58.70;;;;;;5031559;28;20164;-75
2021/12/13 02:17:39;;;;;;;2.40;1.88;;;;;;;;;;5030595;28;20057;-75
2021/12/13 02:20:10;;;;;;;2.03;1.75;;;14.40;63.20;;;;;;5031037;28;20046;-75
2021/12/13 02:22:40;;;;;;;2.70;1.77;;;14.70;58.60;;;;;;5031113;28;20057;-75
2021/12/13 02:25:17;;;;;;;3.55;1.77;;;14.80;58.70;;;;;;5030931;28;20119;-75
2021/12/13 02:27:46;;;;;;;2.85;1.95;;;14.90;65.40;;;;;;5030690;28;20053;-75
2021/12/13 02:30:16;;;;;;;3.08;1.80;;;14.80;58.70;;;;;;5031255;28;20055;-75
2021/12/13 02:32:44;;;;;;;3.35;1.60;;;14.80;62.80;;;;;;5031223;28;20064;-75
2021/12/13 02:35:11;;;;;;;4.00;2.00;;;14.80;65.30;;;;;;5031064;28;20081;-75
2021/12/13 02:37:39;;;;;;;2.85;1.77;;;14.80;65.10;;;;;;5030564;28;20225;-75
2021/12/13 02:40:07;;;;;;;2.42;1.67;;;15.00;65.30;;;;;;5030607;28;20525;-75
2021/12/13 02:42:34;;;;;;;3.45;1.98;;;;;;;;;;5030958;28;20140;-75
2021/12/13 02:45:12;;;;;;;2.47;1.88;;;14.80;65.20;;;;;;5030759;28;20077;-75
2021/12/13 02:47:41;;;;;;;3.15;2.22;;;14.60;65.10;;;;;;5030568;28;20553;-75
2021/12/13 02:50:10;;;;;;;2.53;1.75;;;14.80;59.70;;;;;;5030847;28;20514;-75
2021/12/13 02:52:37;;;;;;;2.58;1.70;;;14.90;65.50;;;;;;5030467;28;20140;-75
2021/12/13 02:55:09;;;;;;;2.08;1.40;;;14.80;65.20;;;;;;5030812;28;20088;-75
2021/12/13 02:57:40;;;;;;;3.08;1.65;;;14.80;58.80;;;;;;5030633;28;20131;-75
2021/12/13 03:00:11;;;;;;;3.45;2.00;;;14.80;65.10;;;;;;5030438;28;20198;-75
2021/12/13 03:02:40;;;;;;;1.92;1.48;;;14.80;65.60;;;;;;5030541;28;20096;-75
2021/12/13 03:05:08;;;;;;;2.88;1.60;;;14.90;65.50;;;;;;5029987;28;20478;-75
2021/12/13 03:07:36;;;;;;;2.50;1.80;;;14.80;64.00;;;;;;5030500;28;20466;-75
2021/12/13 03:10:08;;;;;;;2.42;2.00;;;14.90;65.30;;;;;;5030779;28;20466;-75
2021/12/13 03:12:34;;;;;;;2.80;1.80;;;15.10;65.20;;;;;;5030799;28;20054;-75
2021/12/13 03:15:04;;;;;;;2.10;1.48;;;14.90;62.20;;;;;;5030373;28;20113;-75
2021/12/13 03:17:32;;;;;;;1.95;1.50;;;15.00;65.50;;;;;;5030235;28;20136;-75
2021/12/13 03:20:21;;;;;;;2.50;1.50;;;14.90;60.40;;;;;;5030228;28;20057;-75
2021/12/13 03:23:23;;;;;;;2.78;1.55;;;14.90;58.70;;;;;;5032568;28;20553;-75
2021/12/13 03:26:20;;;;;;;2.00;1.50;;;14.80;65.40;;;;;;5019102;28;20136;-75
2021/12/13 03:29:08;;;;;;;2.75;1.50;;;14.80;58.70;;;;;;5034528;28;20069;-75
2021/12/13 03:31:36;;;;;;;1.85;1.50;;;14.80;58.70;;;;;;5034501;28;20137;-75
2021/12/13 03:34:05;;;;;;;2.10;1.30;;;14.40;64.90;;;;;;5034410;28;20140;-75
2021/12/13 03:36:39;;;;;;;2.30;1.40;;;14.90;65.50;;;;;;5034076;28;20376;-75
2021/12/13 03:39:07;;;;;;;1.80;1.35;;;14.90;65.30;;;;;;5034051;28;20046;-75
2021/12/13 03:41:37;;;;;;;2.00;1.70;;;14.30;64.90;;;;;;5034281;28;20057;-75
2021/12/13 03:44:07;;;;;;;2.08;1.48;;;14.90;58.80;;;;;;5034272;28;20140;-75
2021/12/13 03:46:34;;;;;;;2.22;1.30;;;14.90;65.30;;;;;;5033846;28;20057;-75
2021/12/13 03:49:01;;;;;;;2.75;1.50;;;14.90;65.50;;;;;;5033963;28;20096;-75
2021/12/13 03:51:29;;;;;;;2.45;1.50;;;14.90;65.60;;;;;;5034264;28;20451;-75
2021/12/13 03:53:57;;;;;;;1.88;1.20;;;14.90;65.50;;;;;;5033828;28;20133;-75
2021/12/13 03:56:26;;;;;;;1.85;1.30;;;14.80;64.10;;;;;;5034032;28;20077;-75
2021/12/13 03:58:57;;;;;;;1.92;1.40;;;14.60;65.10;;;;;;5034028;28;20049;-75
2021/12/13 04:01:34;;;;;;;1.90;1.30;;;14.40;65.00;;;;;;5033643;28;20053;-75
2021/12/13 04:04:01;;;;;;;1.70;1.45;;;15.00;65.20;;;;;;5031190;28;20064;-75
2021/12/13 04:06:28;;;;;;;1.50;1.30;;;14.90;65.30;;;;;;5031872;28;20076;-75
2021/12/13 04:08:57;;;;;;;1.67;1.40;;;14.90;65.50;;;;;;5032455;28;20137;-75
2021/12/13 04:11:24;;;;;;;1.48;1.27;;;14.90;58.80;;;;;;5049048;28;20048;-75
2021/12/13 04:13:54;;;;;;;1.30;1.17;;;14.90;65.30;;;;;;5032690;28;20128;-74
2021/12/13 04:16:30;;;;;;;2.22;1.20;;;15.00;65.70;;;;;;5031791;28;20049;-76
2021/12/13 04:19:09;;;;;;;1.92;1.30;;;14.90;65.60;;;;;;5032797;28;20073;-76
2021/12/13 04:21:41;;;;;;;1.58;1.30;;;14.50;64.60;;;;;;5032824;28;20124;-77
2021/12/13 04:24:10;;;;;;;1.90;1.30;;;14.90;65.60;;;;;;5032463;28;20053;-77
2021/12/13 04:26:38;;;;;;;1.85;1.33;;;14.90;65.50;;;;;;5032006;28;20052;-76
2021/12/13 04:29:04;;;;;;;2.42;1.50;;;14.30;64.90;;;;;;5031780;28;20057;-76
2021/12/13 04:31:36;;;;;;;2.33;1.48;;;15.00;65.50;;;;;;5032885;28;20049;-76
2021/12/13 04:34:03;;;;;;;2.42;1.40;;;14.90;65.70;;;;;;5031183;28;20057;-76
2021/12/13 04:36:32;;;;;;;1.45;1.20;;;14.90;65.60;;;;;;5031544;28;20064;-76
2021/12/13 04:39:00;;;;;;;1.80;1.45;;;14.30;65.00;;;;;;5031225;28;20516;-75
2021/12/13 04:41:29;;;;;;;1.73;1.55;;;14.80;58.70;;;;;;5031586;28;20129;-74
2021/12/13 04:43:57;;;;;;;2.65;1.50;;;14.90;65.30;;;;;;5031882;28;20137;-75
2021/12/13 04:46:24;;;;;;;2.55;1.30;;;14.60;65.10;;;;;;5033153;28;20057;-75
2021/12/13 04:48:52;;;;;;;2.28;1.50;;;14.30;65.10;;;;;;5032734;28;20137;-75
2021/12/13 04:51:18;;;;;;;1.55;1.30;;;14.80;65.60;;;;;;5031840;28;20470;-75
2021/12/13 04:53:46;;;;;;;1.52;1.20;;;14.80;65.30;;;;;;5033049;28;20132;-75
2021/12/13 04:56:15;;;;;;;1.77;1.30;;;14.80;65.60;;;;;;5032904;28;20077;-75
2021/12/13 04:58:43;;;;;;;2.38;1.30;;;14.90;65.40;;;;;;5033039;28;20132;-75
2021/12/13 05:01:11;;;;;;;1.88;1.30;;;14.60;65.30;;;;;;5032984;28;20071;-75
2021/12/13 05:03:39;;;;;;;1.50;1.27;;;14.60;65.30;;;;;;5032494;28;20445;-75
2021/12/13 05:06:08;;;;;;;1.92;1.40;;;14.90;65.30;;;;;;5032419;28;20085;-75
2021/12/13 05:08:35;;;;;;;2.17;1.45;;;14.80;65.20;;;;;;5032815;28;20132;-74
2021/12/13 05:11:03;;;;;;;1.23;1.13;;;14.50;65.20;;;;;;5032565;28;20462;-75
2021/12/13 05:13:30;;;;;;;2.88;1.25;;;14.30;64.80;;;;;;5032618;28;20054;-75
2021/12/13 05:15:58;;;;;;;2.08;1.30;;;14.80;58.70;;;;;;5032505;28;20240;-74
2021/12/13 05:18:28;;;;;;;1.90;1.33;;;14.90;58.80;;;;;;5032515;28;20136;-74
2021/12/13 05:21:03;;;;;;;1.60;1.20;;;14.90;65.30;;;;;;5032046;28;20041;-75
2021/12/13 05:23:31;;;;;;;1.73;1.10;;;15.00;65.10;;;;;;5032428;28;20136;-75
2021/12/13 05:25:59;;;;;;;1.90;1.33;;;15.60;65.40;;;;;;5032409;28;20264;-75
2021/12/13 05:28:27;;;;;;;1.42;1.15;;;14.70;62.30;;;;;;5032450;28;20056;-75
2021/12/13 05:30:57;;;;;;;1.45;1.13;;;15.00;65.00;;;;;;5032371;28;20155;-75
2021/12/13 05:33:25;;;;;;;1.15;1.00;;;15.00;58.70;;;;;;5032119;28;20049;-74
2021/12/13 05:35:52;;;;;;;2.30;1.30;;;15.00;58.60;;;;;;5031862;28;20053;-74
2021/12/13 05:38:26;;;;;;;1.83;1.10;;;15.10;65.20;;;;;;5032188;28;20140;-75
2021/12/13 05:40:54;;;;;;;2.15;1.10;;;15.10;65.10;;;;;;5031685;28;20136;-75
2021/12/13 05:43:24;;;;;;;2.20;1.08;;;15.10;65.20;;;;;;5032107;28;20088;-75
2021/12/13 05:45:53;;;;;;;1.90;1.10;;;15.10;64.80;;;;;;5031722;28;20136;-75
2021/12/13 05:48:21;;;;;;;1.70;1.20;;;16.00;60.00;;;;;;5032141;28;20144;-75
2021/12/13 05:50:52;;;;;;;1.80;1.20;;;14.50;58.40;;;;;;5032208;28;20171;-74
2021/12/13 05:53:20;;;;;;;1.20;1.10;;;15.20;63.70;;;;;;5064594;28;20132;-75
2021/12/13 05:55:52;;;;;;;1.40;1.02;;;14.60;64.50;;;;;;5031693;28;20092;-75
2021/12/13 05:58:41;;;;;;;1.27;1.10;;;15.20;64.80;;;;;;5031918;28;20050;-76
2021/12/13 06:01:12;;;;;;;1.48;1.25;;;14.90;64.80;;;;;;5031787;28;20049;-76
2021/12/13 06:03:40;;;;;;;2.15;1.20;;;15.20;64.80;;;;;;5031841;28;20085;-75
2021/12/13 06:06:10;;;;;;;1.60;1.08;;;15.20;64.70;;;;;;5031343;28;20092;-75
2021/12/13 06:08:42;;;;;;;1.10;1.00;;;15.30;58.50;;;;;;5031426;28;20057;-74
2021/12/13 06:11:11;;;;;;;1.45;1.10;;;16.10;65.20;;;;;;5031429;28;20493;-75
2021/12/13 06:16:39;;;;;;;2.53;1.20;;;14.50;64.70;;;;;;5089445;27;20754;-74
2021/12/13 06:19:09;;;;;;;1.10;1.00;;;15.40;65.40;;;;;;5088089;28;20056;-74
2021/12/13 06:21:44;;;;;;;1.55;1.10;;;15.10;64.90;;;;;;5088248;28;20060;-74
2021/12/13 06:24:11;;;;;;;1.95;1.00;;;15.10;65.10;;;;;;5087866;28;20087;-73
2021/12/13 06:26:38;;;;;;;1.10;1.00;;;15.30;65.20;;;;;;5088069;28;20131;-74
2021/12/13 06:29:06;;;;;;;1.42;1.02;;;15.40;65.20;;;;;;5088270;28;20620;-73
2021/12/13 06:31:39;;;;;;;1.45;0.90;;;15.40;58.40;;;;;;5088211;28;20114;-73
2021/12/13 06:34:08;;;;;;;2.30;1.20;;;14.80;64.50;;;;;;5088178;28;20477;-74
2021/12/13 06:36:36;;;;;;;1.70;1.00;;;15.50;65.20;;;;;;5087665;28;20548;-74
2021/12/13 06:39:03;;;;;;;1.20;1.00;;;14.60;64.80;;;;;;5079177;28;20127;-74
2021/12/13 06:41:37;;;;;;;1.67;1.00;;;16.20;65.30;;;;;;5087989;28;20045;-74
2021/12/13 06:44:06;;;;;;;2.20;1.00;;;15.50;63.60;;;;;;5087996;28;20063;-74
2021/12/13 06:46:46;;;;;;;1.10;1.00;;;15.40;65.00;;;;;;5087461;28;20052;-74
2021/12/13 06:49:22;;;;;;;1.27;1.02;;;15.40;64.80;;;;;;5087481;28;20140;-72
2021/12/13 06:51:53;;;;;;;1.75;1.00;;;14.80;64.70;;;;;;5087367;28;20135;-72
2021/12/13 06:54:25;;;;;;;0.70;0.70;;;15.50;59.30;;;;;;5077752;28;20067;-72
2021/12/13 06:56:54;;;;;;;2.17;1.17;;;15.60;59.20;;;;;;5087509;28;20134;-72
2021/12/13 06:59:21;;;;;;;1.20;1.00;;;15.00;64.40;;;;;;5087460;28;20135;-72
2021/12/13 07:01:59;;;;;;;1.02;0.80;;;15.50;64.90;;;;;;5087206;28;20131;-72
2021/12/13 07:04:26;;;;;;;1.13;1.00;;;15.30;61.10;;;;;;5087639;28;20551;-72
2021/12/13 07:06:53;;;;;;;1.20;0.90;;;15.60;64.70;;;;;;5083843;28;20128;-74
2021/12/13 07:09:22;;;;;;;2.13;1.00;;;15.50;64.70;;;;;;5070080;28;20075;-73
2021/12/13 07:11:51;;;;;;;3.85;1.20;;;15.00;64.60;;;;;;5084214;28;20106;-73
2021/12/13 07:14:18;;;;;;;2.15;1.05;;;15.50;64.90;;;;;;5087044;28;20144;-74
2021/12/13 07:16:47;;;;;;;1.40;1.20;;;15.30;64.80;;;;;;5087176;28;20131;-74
2021/12/13 07:19:21;;;;;;;4.75;1.38;;;15.00;58.50;;;;;;5086937;28;20135;-74
2021/12/13 07:21:52;;;;;;;2.10;1.27;;;15.50;64.90;;;;;;5080824;28;20093;-74
2021/12/13 07:24:20;;;;;;;3.53;1.40;;;15.40;65.10;;;;;;5066928;28;20060;-74
2021/12/13 07:26:53;;;;;;;3.05;1.42;;;15.50;64.80;;;;;;5068895;28;20162;-74
2021/12/13 07:29:21;;;;;;;2.80;1.50;;;15.40;65.00;;;;;;5054489;28;20512;-74
2021/12/13 07:32:01;;;;;;;3.58;1.50;;;15.40;64.90;;;;;;5053609;28;20140;-73
2021/12/13 07:34:29;;;;;;;2.95;1.48;;;14.80;64.40;;;;;;5053521;28;20091;-74
2021/12/13 07:36:57;;;;;;;4.47;1.42;;;14.80;64.40;;;;;;5053103;28;20132;-74
2021/12/13 07:39:26;;;;;;;3.50;1.60;;;14.90;64.70;;;;;;5053052;28;20056;-73
2021/12/13 07:41:54;;;;;;;3.58;1.52;;;14.90;64.50;;;;;;5052678;28;20124;-73
2021/12/13 07:44:36;;;;;;;3.55;1.50;;;16.20;58.80;;;;;;5058824;28;20458;-74
2021/12/13 07:47:05;;;;;;;5.00;1.80;;;15.50;58.30;;;;;;5051834;28;20064;-74
2021/12/13 07:49:34;;;;;;;2.72;1.45;;;15.80;65.10;;;;;;5060765;28;20147;-74
2021/12/13 07:52:02;;;;;;;4.32;1.70;;;14.80;64.60;;;;;;5052776;28;20080;-74
2021/12/13 07:54:29;;;;;;;3.70;1.60;;;;;;;;;;5071652;28;20074;-74
2021/12/13 07:56:57;;;;;;;4.72;1.70;;;15.90;65.00;;;;;;5061912;28;20047;-74
2021/12/13 07:59:27;;;;;;;2.97;1.70;;;14.90;64.40;;;;;;5062210;28;20106;-74
2021/12/13 08:01:56;;;;;;;3.55;1.33;;;15.80;64.90;;;;;;5062604;28;20466;-75
2021/12/13 08:04:26;;;;;;;2.30;1.58;;;15.60;64.50;;;;;;5064734;28;20088;-75
2021/12/13 08:06:56;;;;;;;3.40;1.30;;;16.20;64.80;;;;;;5070753;28;20057;-76
2021/12/13 08:09:24;;;;;;;2.58;1.55;;;16.00;64.80;;;;;;5072636;28;20151;-76
2021/12/13 08:11:54;;;;;;;1.83;1.38;;;16.10;64.90;;;;;;5070214;28;20127;-75
2021/12/13 08:14:29;;;;;;;3.80;1.80;;;16.10;64.90;;;;;;5066381;28;20561;-75
2021/12/13 08:16:56;;;;;;;2.45;1.48;;;16.00;65.10;;;;;;5057446;28;20137;-75
2021/12/13 08:19:26;;;;;;;4.82;1.90;;;16.70;65.30;;;;;;5060507;28;20179;-74
2021/12/13 08:21:57;;;;;;;1.85;1.40;;;16.20;64.80;;;;;;5060420;28;20145;-75
2021/12/13 08:24:28;;;;;;;2.60;1.50;;;15.30;58.70;;;;;;5061103;28;20088;-74
2021/12/13 08:27:04;;;;;;;2.05;1.60;;;16.10;64.60;;;;;;5058923;28;20461;-74
2021/12/13 08:29:32;;;;;;;2.53;1.70;;;15.30;60.40;;;;;;5061026;28;20135;-74
2021/12/13 08:31:59;;;;;;;2.22;1.50;;;16.20;58.10;;;;;;5061087;28;20060;-74
2021/12/13 08:34:27;;;;;;;2.42;1.67;;;16.20;58.10;;;;;;5060744;28;20053;-73
2021/12/13 08:36:56;;;;;;;2.03;1.40;;;16.20;58.10;;;;;;5067058;28;20044;-72
2021/12/13 08:39:25;;;;;;;2.75;1.55;;;16.10;63.00;;;;;;5069465;28;20473;-74
2021/12/13 08:41:54;;;;;;;3.08;1.80;;;16.30;62.00;;;;;;5053578;28;20048;-75
2021/12/13 08:44:24;;;;;;;2.60;1.92;;;16.30;64.60;;;;;;5070215;28;20076;-75
2021/12/13 08:46:56;;;;;;;2.22;1.63;;;15.40;63.90;;;;;;5055955;28;20072;-73
2021/12/13 08:49:27;;;;;;;3.85;1.80;;;16.60;64.90;;;;;;5064878;28;20048;-75
2021/12/13 08:51:59;;;;;;;2.40;1.50;;;16.40;64.80;;;;;;5072354;28;20139;-75
2021/12/13 08:54:45;;;;;;;3.88;1.80;;;16.80;65.10;;;;;;5071971;28;20052;-75
2021/12/13 08:57:13;;;;;;;2.63;2.05;;;16.40;64.70;;;;;;5071428;28;20132;-75
2021/12/13 08:59:48;;;;;;;1.90;1.67;;;15.80;64.50;;;;;;5072032;28;20131;-75
2021/12/13 09:02:15;;;;;;;2.03;1.65;;;15.20;64.20;;;;;;5072063;28;20135;-75
2021/12/13 09:04:44;;;;;;;2.65;1.88;;;16.60;64.90;;;;;;5070152;28;20058;-75
2021/12/13 09:07:13;;;;;;;2.00;1.70;;;16.50;64.80;;;;;;5051335;28;20139;-75
2021/12/13 09:09:42;;;;;;;2.67;1.88;;;16.20;64.50;;;;;;5069223;28;20095;-74
2021/12/13 09:12:09;;;;;;;2.33;1.77;;;16.30;64.70;;;;;;5071739;28;20565;-72
2021/12/13 09:14:39;;;;;;;4.25;2.05;;;16.50;64.70;;;;;;5054982;28;20131;-73
2021/12/13 09:17:10;;;;;;;2.30;1.80;;;16.30;58.00;;;;;;5071003;28;20067;-75
2021/12/13 09:19:42;;;;;;;3.63;2.10;;;16.30;64.60;;;;;;5071337;28;20048;-72
2021/12/13 09:22:12;;;;;;;2.70;2.00;;;16.30;58.00;;;;;;5062664;28;20049;-75
2021/12/13 09:24:41;;;;;;;2.92;2.00;;;16.90;64.90;;;;;;5051487;28;20472;-72
2021/12/13 09:27:22;;;;;;;2.40;1.90;;;15.40;64.10;;;;;;5050954;28;20467;-72
2021/12/13 09:29:51;;;;;;;2.45;1.80;;;16.30;64.60;;;;;;5051124;28;20048;-72
2021/12/13 09:32:18;;;;;;;3.00;2.03;;;16.30;63.30;;;;;;5051061;28;20135;-72
2021/12/13 09:34:45;;;;;;;2.13;1.77;;;16.40;64.60;;;;;;5051354;28;20501;-72
2021/12/13 09:37:13;;;;;;;3.22;2.13;;;16.50;59.30;;;;;;5052070;28;20074;-73
2021/12/13 09:39:41;;;;;;;2.40;1.90;;;15.70;60.90;;;;;;5051542;28;20159;-72
2021/12/13 09:42:09;;;;;;;4.70;2.00;;;16.40;58.00;;;;;;5051172;28;20052;-74
2021/12/13 09:44:41;;;;;;;2.60;1.92;;;16.20;64.20;;;;;;5051147;28;20084;-73
2021/12/13 09:47:09;;;;;;;4.13;2.40;;;16.50;60.20;;;;;;5050862;28;20080;-73
2021/12/13 09:49:38;;;;;;;2.47;1.95;;;15.80;57.90;;;;;;5050569;28;20088;-74
2021/12/13 09:52:06;;;;;;;2.40;2.00;;;16.60;64.40;;;;;;5050953;28;20155;-73
2021/12/13 09:54:40;;;;;;;2.50;1.80;;;16.40;64.50;;;;;;5051065;28;20387;-73
2021/12/13 09:57:09;;;;;;;2.72;1.90;;;16.30;60.10;;;;;;5070342;28;20048;-73
2021/12/13 09:59:37;;;;;;;2.88;2.30;;;16.60;64.60;;;;;;5070666;28;20484;-73
2021/12/13 10:02:06;;;;;;;2.92;2.20;;;16.40;58.00;;;;;;5071015;28;20476;-73
2021/12/13 10:04:35;;;;;;;2.35;1.75;;;16.40;58.00;;;;;;5070844;28;20139;-73
2021/12/13 10:07:03;;;;;;;2.80;2.13;;;16.40;64.40;;;;;;5070673;28;20131;-73
2021/12/13 10:09:31;;;;;;;2.35;1.90;;;16.10;64.10;;;;;;5070556;28;20131;-73
2021/12/13 10:12:01;;;;;;;2.40;2.03;;;16.50;64.20;;;;;;5069241;28;20457;-73
2021/12/13 10:14:30;;;;;;;2.45;2.00;;;16.80;64.40;;;;;;5070661;28;20386;-73
2021/12/13 10:16:57;;;;;;;2.42;2.10;;;;;;;;;;5070391;28;20052;-72
2021/12/13 10:19:26;;;;;;;3.30;2.20;;;16.30;64.30;;;;;;5070453;28;20079;-75
2021/12/13 10:21:53;;;;;;;3.03;1.80;;;;;;;;;;5070778;28;20568;-74
2021/12/13 10:24:23;;;;;;;2.83;2.00;;;16.60;64.30;;;;;;5071731;28;20131;-75
2021/12/13 10:26:50;;;;;;;2.90;1.95;;;15.70;61.70;;;;;;5070246;28;20140;-74
2021/12/13 10:29:19;;;;;;;2.50;2.10;;;16.50;64.20;;;;;;5069022;28;20481;-74
2021/12/13 10:31:47;;;;;;;2.83;2.17;;;16.40;64.50;;;;;;5070646;28;20512;-75
2021/12/13 10:34:20;;;;;;;3.13;2.45;;;15.80;63.80;;;;;;5070656;28;20140;-74
2021/12/13 10:36:49;;;;;;;4.60;2.22;;;16.40;58.00;;;;;;5070381;28;20050;-73
2021/12/13 10:39:18;;;;;;;2.50;1.95;;;16.40;58.00;;;;;;5071445;28;20116;-74
2021/12/13 10:41:47;;;;;;;3.00;2.22;;;16.50;64.60;;;;;;5064469;28;20532;-72
2021/12/13 10:44:15;;;;;;;2.75;2.10;;;16.40;58.00;;;;;;5062795;28;20048;-73
2021/12/13 10:46:47;;;;;;;3.72;2.15;;;16.50;64.30;;;;;;5057060;28;20048;-73
2021/12/13 10:49:15;;;;;;;3.63;2.13;;;16.50;64.30;;;;;;5065104;28;20060;-73
2021/12/13 10:51:44;;;;;;;2.78;2.10;;;17.20;61.70;;;;;;5057941;28;20409;-72
2021/12/13 10:54:12;;;;;;;3.50;2.25;;;16.50;64.50;;;;;;5056560;28;20127;-73
2021/12/13 10:56:42;;;;;;;2.85;2.05;;;16.60;64.60;;;;;;5060284;28;20041;-73
2021/12/13 10:59:10;;;;;;;3.97;2.30;;;15.60;64.00;;;;;;5059458;28;20076;-73
2021/12/13 11:01:39;;;;;;;2.88;2.00;;;16.00;64.10;;;;;;5058339;28;20131;-73
2021/12/13 11:04:08;;;;;;;2.75;1.88;;;16.80;64.40;;;;;;5065515;28;20143;-72
2021/12/13 11:06:40;;;;;;;2.70;2.03;;;15.80;64.20;;;;;;5060681;28;20137;-73
2021/12/13 11:09:09;;;;;;;2.85;2.20;;;16.40;64.30;;;;;;5065016;28;20476;-73
2021/12/13 11:11:38;;;;;;;2.55;1.95;;;16.40;58.30;;;;;;5062453;28;20061;-73
2021/12/13 11:14:06;;;;;;;3.00;2.25;;;16.30;64.50;;;;;;5062719;28;20548;-73
2021/12/13 11:16:34;;;;;;;3.17;2.03;;;16.30;64.40;;;;;;5058075;28;20123;-73
2021/12/13 11:19:01;;;;;;;4.07;2.10;;;;;;;;;;5062222;28;20131;-73
2021/12/13 11:21:35;;;;;;;2.72;1.98;;;16.40;64.30;;;;;;5062756;28;20144;-72
2021/12/13 11:24:02;;;;;;;3.47;2.20;;;16.50;64.80;;;;;;5064179;28;20132;-72
2021/12/13 11:26:31;;;;;;;2.55;2.00;;;16.30;58.30;;;;;;5062888;28;20132;-72
2021/12/13 11:28:58;;;;;;;4.10;2.25;;;15.60;64.40;;;;;;5063098;28;20041;-72
2021/12/13 11:32:00;;;;;;;3.08;2.28;;;16.30;58.30;;;;;;5063191;28;20139;-71
2021/12/13 11:34:43;;;;;;;3.08;2.08;;;16.30;58.90;;;;;;5063495;28;20048;-72
2021/12/13 11:37:54;;;;;;;4.43;1.90;;;15.90;64.40;;;;;;5065735;28;20072;-72
2021/12/13 11:40:33;;;;;;;2.75;1.90;;;16.30;58.40;;;;;;5053389;28;20140;-70
2021/12/13 11:43:12;;;;;;;2.40;1.90;;;16.10;64.80;;;;;;5058214;28;20457;-70
2021/12/13 11:46:18;;;;;;;2.63;1.95;;;16.10;64.50;;;;;;5073286;28;20049;-71
2021/12/13 11:49:06;;;;;;;;;;;16.30;59.00;;;;;;5062318;28;20091;-70
2021/12/13 11:51:59;;;;;;;2.38;2.00;;;16.20;65.00;;;;;;5039952;28;19920;-71
2021/12/13 11:54:44;;;;;;;3.78;2.20;;;15.30;62.30;;;;;;5065265;28;20060;-71
2021/12/13 11:57:38;;;;;;;3.30;2.00;;;16.20;64.70;;;;;;5052827;28;20537;-71
2021/12/13 12:00:13;;;;;;;3.05;2.10;;;16.80;65.20;;;;;;5041271;28;20476;-72
2021/12/13 12:02:49;;;;;;;2.70;2.08;;;16.10;58.70;;;;;;5061897;28;20149;-72
2021/12/13 12:05:48;;;;;;;2.78;2.08;;;15.70;63.70;;;;;;5061466;28;20052;-72
2021/12/13 12:08:38;;;;;;;3.20;2.00;;;16.30;65.30;;;;;;5047920;28;20048;-72
2021/12/13 12:11:42;;;;;;;4.75;2.50;;;16.30;65.00;;;;;;5065604;28;20132;-73
2021/12/13 12:14:12;;;;;;;3.20;2.13;;;16.10;65.30;;;;;;5061542;28;20136;-73
2021/12/13 12:16:40;;;;;;;5.50;2.30;;;16.40;65.40;;;;;;5058205;28;20056;-72
2021/12/13 12:19:09;;;;;;;4.60;2.25;;;16.00;65.30;;;;;;5058185;28;20136;-73
2021/12/13 12:21:43;;;;;;;4.72;2.25;;;16.10;59.10;;;;;;5055390;28;20103;-72
2021/12/13 12:24:12;;;;;;;3.08;2.10;;;15.60;64.70;;;;;;5058910;28;20093;-73
2021/12/13 12:26:40;;;;;;;5.35;2.20;;;16.10;65.30;;;;;;5059269;28;20057;-72
2021/12/13 12:29:11;;;;;;;4.32;2.08;;;16.20;62.00;;;;;;5058776;28;20523;-72
2021/12/13 12:31:39;;;;;;;4.97;2.20;;;16.10;65.30;;;;;;5060657;28;20474;-72
2021/12/13 12:34:06;;;;;;;2.75;2.15;;;16.00;65.30;;;;;;5057969;28;20148;-74
2021/12/13 12:36:45;;;;;;;2.92;2.08;;;16.20;65.50;;;;;;5057519;28;20044;-72
2021/12/13 12:40:00;;;;;;;2.28;2.00;;;16.20;65.40;;;;;;5062146;28;20083;-72
2021/12/13 12:42:29;;;;;;;3.65;2.00;;;15.40;65.00;;;;;;5058883;28;20129;-73
2021/12/13 12:45:07;;;;;;;3.47;2.08;;;16.10;65.10;;;;;;5058654;28;20132;-72
2021/12/13 12:48:07;;;;;;;4.28;2.22;;;16.10;65.10;;;;;;5056816;28;20129;-73
2021/12/13 12:50:36;;;;;;;2.42;1.80;;;16.10;65.10;;;;;;5056321;28;20135;-72
2021/12/13 12:53:04;;;;;;;4.68;2.33;;;16.30;65.20;;;;;;5055368;28;20169;-73
2021/12/13 12:55:32;;;;;;;2.55;1.88;;;15.50;60.40;;;;;;5057902;28;20198;-73
2021/12/13 12:58:00;;;;;;;3.55;1.90;;;15.70;63.70;;;;;;5057219;28;20128;-72
2021/12/13 13:00:29;;;;;;;3.30;2.10;;;15.60;65.00;;;;;;5059959;28;20139;-72
2021/12/13 13:02:58;;;;;;;2.70;1.90;;;16.00;65.30;;;;;;5058273;28;20388;-72
2021/12/13 13:05:26;;;;;;;4.05;2.20;;;15.70;64.80;;;;;;5060787;28;20131;-72
2021/12/13 13:07:53;;;;;;;3.45;2.20;;;;;;;;;;5061647;28;20068;-74
2021/12/13 13:10:23;;;;;;;2.53;1.88;;;16.00;65.30;;;;;;5057040;28;20144;-72
2021/12/13 13:12:50;;;;;;;2.67;2.05;;;16.20;61.50;;;;;;5058377;28;20057;-73
2021/12/13 13:15:20;;;;;;;2.35;1.80;;;16.90;65.70;;;;;;5056318;28;20132;-72
2021/12/13 13:17:51;;;;;;;2.35;2.10;;;15.70;65.00;;;;;;5058257;28;20041;-72